Aviation Digital Data Service (ADDS)

Output produced by METARs form (1423 UTC 22 April 2021)
found at http://www.aviationweather.gov/metar/data/
 
KSAV 221353Z 03009KT 10SM FEW180 11/M05 A3023 RMK AO2 SLP237 T01111050
KSAV 221124Z 2212/2312 01008KT P6SM SKC 
     FM222100 VRB03KT P6SM SKC 
     FM230400 00000KT P6SM SKC
       
KSVN 221356Z AUTO 02005KT 10SM SCT150 12/M05 A3020 RMK AO2 SLP230 T01181052 $
TAF KSVN 221200Z 2212/2318 01010G15KT 9999 SKC QNH3013INS 
     BECMG 2217/2218 05012KT 9999 SKC QNH3015INS TX27/2221Z TN07/2212Z
       
KLHW 221356Z AUTO 03010G15KT 10SM CLR 11/M05 A3021 RMK AO2 SLP233 T01131052 $
KTBR 221415Z AUTO 02006KT 10SM CLR 11/M07 A3024 RMK AO2 T01051068
KVDI 221417Z AUTO 04008G15KT 10SM CLR 12/M04 A3025 RMK AO2
KJYL 221415Z AUTO 06009KT 10SM CLR 11/M06 A3025 RMK AO2 T01121056
KDBN 221415Z AUTO 07004KT 10SM CLR 12/M04 A3028 RMK AO2
KJES 221415Z AUTO 06010KT 10SM CLR 12/M05 A3024 RMK AO2
KSSI 221353Z AUTO 03012G20KT 10SM CLR 13/03 A3020 RMK AO2 SLP227 T01330033
KSSI 221120Z 2212/2312 02013G25KT P6SM BKN250 
     FM221900 08011G16KT P6SM SKC 
     FM222100 09009KT P6SM SKC
       
KBQK 221415Z AUTO 03011G16KT 10SM CLR 13/01 A3021 RMK AO2 T01290010
KAYS 221415Z AUTO 06011G14KT 10SM CLR 12/M07 A3023 RMK AO2 T01211069
KNBC 221356Z 36011KT 10SM CLR 12/M04 A3023 RMK AO2 SLP237 T01171044 $
TAF AMD KNBC 2209/2309 30010KT 9999 SKC QNH3009INS 
     FM221800 22008KT 9999 SKC QNH3015INS T17/2220Z T11/2308Z AMD 0930
       
KHXD 221350Z 04012G20KT 10SM CLR 11/M05 A3023